Time;durP1;ratioP1;P1;durP2;ratioP2;P2;SDS_P1;SDS_P2;PMS_P1;PMS_P2;Temp;Humidity;BMP_temperature;BMP_pressure;BME280_temperature;BME280_humidity;BME280_pressure;Samples;Min_cycle;Max_cycle;Signal;HPM_P1;HPM_P2
2022/12/18 00:01:13;;;;;;;28.70;15.43;;;;;;;-3.30;61.93;101059.47;5010260;28;20140;-76
2022/12/18 00:03:39;;;;;;;31.35;14.60;;;;;;;-3.28;61.72;101055.22;5010217;28;20046;-77
2022/12/18 00:06:08;;;;;;;30.88;14.80;;;;;;;-3.23;61.70;101059.59;5010114;28;20061;-77
2022/12/18 00:08:35;;;;;;;27.58;13.38;;;;;;;-3.20;61.50;101057.97;5010037;28;20501;-77
2022/12/18 00:11:06;;;;;;;31.13;13.80;;;;;;;-3.18;61.61;101052.84;5010048;28;20141;-77
2022/12/18 00:13:32;;;;;;;28.67;14.48;;;;;;;-3.14;62.02;101052.94;5010352;28;20088;-77
2022/12/18 00:16:04;;;;;;;24.90;13.32;;;;;;;-3.12;62.26;101057.25;5009967;28;20092;-77
2022/12/18 00:18:31;;;;;;;23.38;12.48;;;;;;;-3.09;61.64;101055.63;5010044;28;20476;-76
2022/12/18 00:21:03;;;;;;;28.50;12.85;;;;;;;-3.08;62.06;101048.75;5001698;28;20088;-77
2022/12/18 00:23:30;;;;;;;29.02;13.27;;;;;;;-3.06;62.00;101047.06;5010350;28;20141;-77
2022/12/18 00:26:01;;;;;;;22.75;12.25;;;;;;;-3.05;61.62;101047.13;4992910;28;20543;-77
2022/12/18 00:28:28;;;;;;;21.23;10.85;;;;;;;-3.04;61.81;101046.28;4996233;28;20085;-76
2022/12/18 00:31:24;;;;;;;20.52;11.60;;;;;;;-3.03;62.79;101048.00;5013800;28;20141;-77
2022/12/18 00:33:53;;;;;;;22.90;12.38;;;;;;;-2.98;62.05;101042.06;5001772;28;20408;-77
2022/12/18 00:36:23;;;;;;;22.38;11.27;;;;;;;-2.96;61.71;101040.41;5013476;28;20060;-77
2022/12/18 00:38:49;;;;;;;19.42;10.55;;;;;;;-2.95;61.59;101040.41;4996311;28;20507;-77
2022/12/18 00:42:55;;;;;;;22.35;10.60;;;;;;;-2.92;61.75;101042.22;5013402;28;20516;-77
2022/12/18 00:44:05;;;;;;;20.25;10.73;;;;;;;-2.91;61.88;101039.63;5013423;28;20469;-76
2022/12/18 00:46:32;;;;;;;18.50;10.25;;;;;;;-2.89;62.07;101029.38;5013317;28;20398;-77
2022/12/18 00:48:59;;;;;;;21.90;11.88;;;;;;;-2.86;62.13;101034.59;5013573;28;20261;-78
2022/12/18 00:51:25;;;;;;;20.77;10.40;;;;;;;-2.84;62.05;101032.03;5013529;28;20081;-77
2022/12/18 00:53:52;;;;;;;24.63;10.60;;;;;;;-2.84;61.47;101032.88;5013455;28;20092;-77
2022/12/18 00:56:18;;;;;;;21.73;10.40;;;;;;;-2.83;61.39;101038.91;5013258;28;20136;-76
2022/12/18 00:58:45;;;;;;;16.88;9.77;;;;;;;-2.82;62.01;101043.22;5013148;28;20141;-77
2022/12/18 01:01:11;;;;;;;16.23;9.00;;;;;;;-2.81;61.86;101051.00;4995532;28;20081;-77
2022/12/18 01:03:37;;;;;;;18.92;9.00;;;;;;;-2.80;61.87;101050.16;5013152;28;20053;-76
2022/12/18 01:06:07;;;;;;;16.55;8.85;;;;;;;-2.76;61.54;101058.81;5013122;28;20053;-77
2022/12/18 01:08:34;;;;;;;15.30;8.00;;;;;;;-2.72;62.12;101046.84;5013501;28;20214;-77
2022/12/18 01:11:07;;;;;;;16.35;9.13;;;;;;;-2.72;61.60;101041.69;5012969;28;20141;-77
2022/12/18 01:13:33;;;;;;;14.57;7.93;;;;;;;-2.69;61.31;101037.47;5012993;28;20096;-76
2022/12/18 01:15:59;;;;;;;14.50;7.93;;;;;;;-2.66;61.34;101034.94;5012787;28;20065;-77
2022/12/18 01:18:26;;;;;;;18.80;8.02;;;;;;;-2.65;61.52;101028.09;5012892;28;20504;-77
2022/12/18 01:23:33;;;;;;;14.07;7.70;;;;;;;-2.63;61.43;101032.44;5042499;23;20125;-78
2022/12/18 01:26:13;;;;;;;12.63;7.38;;;;;;;-2.64;61.86;101041.03;5013421;28;20077;-78
2022/12/18 01:28:40;;;;;;;14.02;7.78;;;;;;;-2.59;61.38;101042.81;5013770;28;20144;-81
2022/12/18 01:31:10;;;;;;;16.50;7.50;;;;;;;-2.58;61.42;101044.53;5013652;28;20054;-81
2022/12/18 01:33:37;;;;;;;15.07;7.25;;;;;;;-2.57;61.17;101042.00;5013640;28;20058;-80
2022/12/18 01:36:04;;;;;;;15.77;7.63;;;;;;;-2.56;61.44;101033.41;5013455;28;20062;-80
2022/12/18 01:38:31;;;;;;;11.57;6.53;;;;;;;-2.55;61.44;101027.41;5012748;28;20502;-81
2022/12/18 01:40:58;;;;;;;12.77;6.75;;;;;;;-2.54;61.57;101038.59;5013152;28;20060;-81
2022/12/18 01:43:41;;;;;;;12.93;7.82;;;;;;;-2.54;62.29;101036.03;5013144;28;20054;-81
2022/12/18 01:46:07;;;;;;;;;;;;;;;-2.51;61.86;101031.78;5013527;28;20050;-79
2022/12/18 01:48:34;;;;;;;12.40;6.03;;;;;;;-2.49;61.06;101032.69;5013134;28;19927;-80
2022/12/18 01:51:01;;;;;;;11.60;5.93;;;;;;;-2.46;61.03;101046.47;4995891;28;20100;-80
2022/12/18 01:53:28;;;;;;;12.82;6.35;;;;;;;-2.47;61.62;101052.47;5013026;28;20286;-80
2022/12/18 01:55:57;;;;;;;12.45;6.47;;;;;;;-2.47;61.41;101063.63;5012820;28;20137;-80
2022/12/18 01:58:53;;;;;;;11.73;5.85;;;;;;;-2.47;61.60;101063.63;5013125;28;20573;-80
2022/12/18 02:01:22;;;;;;;13.18;6.00;;;;;;;-2.46;61.15;101072.25;5012941;28;20056;-78
2022/12/18 02:03:49;;;;;;;11.75;5.85;;;;;;;-2.47;61.44;101068.78;5012721;28;20053;-80
2022/12/18 02:06:33;;;;;;;10.55;5.85;;;;;;;-2.47;61.31;101066.22;5012440;28;20517;-80
2022/12/18 02:09:15;;;;;;;11.10;5.95;;;;;;;-2.45;61.61;101064.53;5013030;28;20058;-80
2022/12/18 02:11:53;;;;;;;11.18;5.03;;;;;;;-2.44;61.75;101057.69;5012645;28;20064;-80
2022/12/18 02:14:43;;;;;;;9.50;4.90;;;;;;;-2.42;61.96;101056.00;5012643;28;20045;-80
2022/12/18 02:17:20;;;;;;;9.38;4.85;;;;;;;-2.40;61.83;101054.28;5012565;28;20082;-80
2022/12/18 02:20:05;;;;;;;10.35;5.43;;;;;;;-2.38;61.79;101055.22;5012753;28;20552;-81
2022/12/18 02:22:43;;;;;;;8.35;5.00;;;;;;;-2.38;61.96;101038.03;5012540;28;20426;-81
2022/12/18 02:25:46;;;;;;;10.15;5.07;;;;;;;-2.36;61.93;101046.66;5012582;28;20549;-80
2022/12/18 02:28:16;;;;;;;10.88;4.57;;;;;;;-2.33;61.26;101045.84;4994834;28;20586;-80
2022/12/18 02:30:48;;;;;;;10.73;4.45;;;;;;;-2.31;61.48;101048.44;4995274;28;20065;-81
2022/12/18 02:33:18;;;;;;;7.70;4.03;;;;;;;-2.30;61.78;101048.47;5012411;28;20068;-81
2022/12/18 02:35:46;;;;;;;7.78;4.18;;;;;;;-2.28;61.17;101053.66;5012434;28;20054;-80
2022/12/18 02:38:15;;;;;;;6.47;4.18;;;;;;;-2.26;61.46;101057.13;5012165;28;20516;-81
2022/12/18 02:40:42;;;;;;;9.73;4.45;;;;;;;-2.25;61.73;101044.25;5012350;28;20513;-80
2022/12/18 02:43:12;;;;;;;6.55;3.85;;;;;;;-2.21;61.47;101041.75;5012029;28;20403;-81
2022/12/18 02:45:54;;;;;;;8.80;3.92;;;;;;;-2.21;61.69;101042.59;5012248;28;20066;-80
2022/12/18 02:48:29;;;;;;;4.35;2.70;;;;;;;-2.16;61.61;101042.69;5011726;28;20120;-79
2022/12/18 02:51:08;;;;;;;7.25;3.03;;;;;;;-2.14;61.40;101033.22;5012229;28;20053;-79
2022/12/18 02:53:45;;;;;;;5.22;3.13;;;;;;;-2.12;61.72;101044.47;5012168;28;20054;-80
2022/12/18 02:56:18;;;;;;;5.60;3.22;;;;;;;-2.09;61.67;101041.94;5011737;28;20419;-80
2022/12/18 02:59:04;;;;;;;5.78;3.17;;;;;;;-2.07;61.71;101039.34;5012004;28;20108;-80
2022/12/18 03:01:40;;;;;;;4.03;2.45;;;;;;;-2.04;61.39;101042.88;5011858;28;20057;-80
2022/12/18 03:04:38;;;;;;;7.22;3.00;;;;;;;-2.03;61.65;101042.03;5011647;28;20501;-79
2022/12/18 03:07:15;;;;;;;4.60;2.67;;;;;;;-2.00;61.26;101029.19;5011830;28;20062;-80
2022/12/18 03:09:46;;;;;;;5.22;2.38;;;;;;;-1.98;61.03;101029.22;4994359;28;20061;-79
2022/12/18 03:12:29;;;;;;;5.50;2.38;;;;;;;-2.00;61.33;101039.50;5011572;28;20057;-80
2022/12/18 03:15:14;;;;;;;3.03;1.80;;;;;;;-1.99;61.19;101037.78;5011370;28;20743;-80
2022/12/18 03:17:50;;;;;;;4.97;2.42;;;;;;;-1.99;61.37;101036.06;5011590;28;20054;-80
2022/12/18 03:20:20;;;;;;;3.65;2.50;;;;;;;-1.99;60.91;101036.06;5011541;28;20415;-80
2022/12/18 03:22:51;;;;;;;3.75;2.40;;;;;;;-1.97;61.15;101030.94;5011645;28;20140;-80
2022/12/18 03:25:19;;;;;;;7.90;3.58;;;;;;;-1.97;61.32;101039.53;4993571;28;20462;-80
2022/12/18 03:27:51;;;;;;;3.85;2.50;;;;;;;-1.96;61.24;101035.25;5011413;28;20057;-79
2022/12/18 03:30:18;;;;;;;3.03;2.10;;;;;;;-1.93;61.33;101040.47;5011631;28;20064;-80
2022/12/18 03:32:48;;;;;;;4.13;2.88;;;;;;;-1.91;61.20;101035.34;5011370;28;20081;-80
2022/12/18 03:35:21;;;;;;;4.25;2.50;;;;;;;-1.90;61.19;101037.06;5011068;28;20057;-80
2022/12/18 03:37:48;;;;;;;7.30;2.53;;;;;;;-1.88;61.20;101043.97;5010967;28;20077;-79
2022/12/18 03:40:15;;;;;;;3.90;2.15;;;;;;;-1.86;61.08;101047.44;5010922;28;20058;-79
2022/12/18 03:42:58;;;;;;;3.85;2.28;;;;;;;-1.88;61.31;101046.56;4993607;28;20076;-80
2022/12/18 03:45:39;;;;;;;3.38;2.10;;;;;;;-1.85;61.51;101038.00;4993844;28;20501;-81
2022/12/18 03:48:16;;;;;;;5.20;2.20;;;;;;;-1.84;61.43;101029.41;5010993;28;20077;-80
2022/12/18 03:50:52;;;;;;;5.88;2.15;;;;;;;-1.85;61.31;101032.84;4993726;28;20413;-79
2022/12/18 03:53:25;;;;;;;4.65;2.47;;;;;;;-1.83;60.77;101033.75;4993584;28;20065;-80
2022/12/18 03:55:52;;;;;;;3.67;2.47;;;;;;;-1.82;60.66;101032.88;4993532;28;20050;-79
2022/12/18 03:58:25;;;;;;;4.72;2.30;;;;;;;-1.86;61.25;101031.09;5010820;28;20062;-79
2022/12/18 04:00:55;;;;;;;4.95;2.55;;;;;;;-1.85;60.83;101025.09;5010595;28;20132;-80
2022/12/18 04:03:24;;;;;;;4.43;2.40;;;;;;;-1.84;60.94;101029.41;4993396;28;20069;-80
2022/12/18 04:05:55;;;;;;;4.45;2.35;;;;;;;-1.84;61.17;101030.28;5010772;28;20046;-80
2022/12/18 04:08:23;;;;;;;6.40;2.33;;;;;;;-1.84;60.87;101034.56;5010640;28;20050;-79
2022/12/18 04:10:50;;;;;;;5.18;2.70;;;;;;;-1.85;60.82;101035.41;5010897;28;20054;-80
2022/12/18 04:13:43;;;;;;;6.07;2.60;;;;;;;-1.89;61.13;101025.88;4993144;28;20148;-80
2022/12/18 04:16:09;;;;;;;4.93;2.35;;;;;;;-1.86;60.61;101025.94;5008680;28;20054;-79
2022/12/18 04:18:36;;;;;;;5.20;2.30;;;;;;;-1.86;60.90;101025.94;5010388;28;20061;-79
2022/12/18 04:21:03;;;;;;;3.58;2.30;;;;;;;-1.87;61.01;101022.47;4993241;28;20146;-80
2022/12/18 04:23:30;;;;;;;5.20;2.38;;;;;;;-1.86;61.12;101028.53;5010401;28;20053;-79
2022/12/18 04:25:56;;;;;;;3.92;2.30;;;;;;;-1.84;60.95;101034.56;5010622;28;20192;-79
2022/12/18 04:28:23;;;;;;;3.17;2.00;;;;;;;-1.83;60.82;101034.59;5010693;28;20085;-80
2022/12/18 04:30:49;;;;;;;3.03;2.05;;;;;;;-1.82;60.87;101030.31;5010980;28;20065;-81
2022/12/18 04:33:16;;;;;;;3.67;2.00;;;;;;;-1.81;60.55;101032.03;5010639;28;20064;-80
2022/12/18 04:35:43;;;;;;;3.47;2.08;;;;;;;-1.80;60.40;101022.59;5010370;28;20054;-80
2022/12/18 04:38:10;;;;;;;3.20;2.00;;;;;;;-1.80;60.63;101025.16;4993137;28;20053;-80
2022/12/18 04:40:37;;;;;;;2.95;2.00;;;;;;;-1.79;60.86;101021.72;5010406;28;20501;-80
2022/12/18 04:43:04;;;;;;;3.20;1.92;;;;;;;-1.79;60.62;101021.72;4993431;28;20108;-80
2022/12/18 04:45:32;;;;;;;3.28;1.80;;;;;;;-1.79;60.49;101025.19;5010458;28;20064;-79
2022/12/18 04:47:59;;;;;;;3.38;2.10;;;;;;;-1.77;60.59;101020.03;5010336;28;20057;-80
2022/12/18 04:50:26;;;;;;;4.28;2.17;;;;;;;-1.79;60.41;101012.28;5010529;28;20073;-80
2022/12/18 04:52:53;;;;;;;4.55;2.05;;;;;;;-1.78;60.74;101011.44;5010393;28;20071;-80
2022/12/18 04:55:19;;;;;;;2.88;2.00;;;;;;;-1.78;60.27;101015.72;4993017;28;20240;-80
2022/12/18 04:57:46;;;;;;;5.05;2.20;;;;;;;-1.79;60.62;101011.41;4992772;28;20054;-80
2022/12/18 05:00:13;;;;;;;6.13;2.45;;;;;;;-1.80;60.44;101009.69;4993195;28;20062;-80
2022/12/18 05:02:40;;;;;;;4.22;2.03;;;;;;;-1.80;60.27;101015.69;5010289;28;20072;-79
2022/12/18 05:05:07;;;;;;;3.47;2.35;;;;;;;-1.80;60.40;101026.00;5009997;28;20136;-80
2022/12/18 05:07:34;;;;;;;5.68;2.33;;;;;;;-1.81;60.25;101024.28;5010648;28;20065;-80
2022/12/18 05:10:00;;;;;;;3.33;2.05;;;;;;;-1.81;60.31;101024.28;5009954;28;20057;-78
2022/12/18 05:12:27;;;;;;;3.78;1.98;;;;;;;-1.80;60.10;101025.16;4994358;28;20144;-80
2022/12/18 05:14:53;;;;;;;3.53;2.15;;;;;;;-1.81;60.51;101024.28;4996182;28;20068;-80
2022/12/18 05:17:20;;;;;;;3.80;2.20;;;;;;;-1.82;60.65;101014.81;4996322;28;20128;-80
2022/12/18 05:19:46;;;;;;;3.45;1.98;;;;;;;-1.82;60.17;101014.81;4996238;28;20054;-79
2022/12/18 05:22:13;;;;;;;4.90;2.10;;;;;;;-1.82;60.43;101014.81;5013541;28;20062;-80
2022/12/18 05:24:39;;;;;;;3.38;1.92;;;;;;;-1.82;60.43;101012.22;5013717;28;20075;-80
2022/12/18 05:27:06;;;;;;;3.88;2.20;;;;;;;-1.82;60.55;101012.22;4996328;28;20064;-79
2022/12/18 05:29:33;;;;;;;3.53;2.22;;;;;;;-1.82;60.24;101012.22;5013490;28;20418;-80
2022/12/18 05:31:59;;;;;;;3.90;2.13;;;;;;;-1.80;60.32;101013.09;4996110;28;20058;-78
2022/12/18 05:34:26;;;;;;;3.80;2.20;;;;;;;-1.79;60.32;101009.72;5013417;28;20054;-80
2022/12/18 05:36:52;;;;;;;3.70;2.08;;;;;;;-1.79;60.26;101003.66;5013640;28;20076;-80
2022/12/18 05:39:19;;;;;;;3.85;2.00;;;;;;;-1.78;60.37;101006.28;5013364;28;20176;-80
2022/12/18 05:41:45;;;;;;;3.67;2.10;;;;;;;-1.77;60.35;101008.00;5013530;28;20112;-80
2022/12/18 05:44:12;;;;;;;3.00;1.88;;;;;;;-1.76;60.14;101012.31;5013041;28;20561;-80
2022/12/18 05:46:38;;;;;;;5.63;2.47;;;;;;;-1.76;60.20;101016.63;5012879;28;20057;-80
2022/12/18 05:49:06;;;;;;;4.22;2.13;;;;;;;-1.75;60.49;101024.38;4995723;28;20064;-80
2022/12/18 05:51:32;;;;;;;5.05;2.40;;;;;;;-1.75;60.24;101034.69;5013216;28;20050;-78
2022/12/18 05:53:59;;;;;;;5.43;2.22;;;;;;;-1.75;60.30;101029.53;5012964;28;20089;-80
2022/12/18 05:56:25;;;;;;;3.20;2.08;;;;;;;-1.75;60.32;101031.25;5013050;28;20050;-80
2022/12/18 05:58:53;;;;;;;3.47;2.22;;;;;;;-1.74;60.37;101046.78;5012827;28;20058;-80
2022/12/18 06:01:25;;;;;;;5.50;2.25;;;;;;;-1.72;60.31;101049.38;5012971;28;20319;-80
2022/12/18 06:03:52;;;;;;;3.33;1.88;;;;;;;-1.71;60.38;101051.13;4995230;28;20060;-80
2022/12/18 06:06:22;;;;;;;5.32;2.60;;;;;;;-1.72;60.47;101047.66;5012946;28;20392;-80
2022/12/18 06:08:50;;;;;;;6.38;2.45;;;;;;;-1.69;60.36;101045.97;5012711;28;20069;-80
2022/12/18 06:11:20;;;;;;;4.35;2.35;;;;;;;-1.71;60.47;101046.78;5012615;28;20056;-79
2022/12/18 06:13:49;;;;;;;4.38;2.15;;;;;;;-1.71;60.08;101044.22;5012703;28;20054;-80
2022/12/18 06:16:23;;;;;;;4.82;2.00;;;;;;;-1.67;59.90;101049.44;5012407;28;20046;-80
2022/12/18 06:18:50;;;;;;;2.97;2.00;;;;;;;-1.68;60.24;101047.69;5012755;28;20062;-80
2022/12/18 06:21:16;;;;;;;3.00;1.85;;;;;;;-1.69;59.84;101048.56;5012676;28;20053;-81
2022/12/18 06:23:43;;;;;;;4.45;2.03;;;;;;;-1.69;60.06;101058.88;5012344;28;20506;-80
2022/12/18 06:26:12;;;;;;;3.45;1.98;;;;;;;-1.71;59.68;101064.88;5012225;28;20414;-80
2022/12/18 06:28:38;;;;;;;4.70;2.13;;;;;;;-1.71;59.73;101066.59;4994971;28;20066;-80
2022/12/18 06:31:06;;;;;;;3.83;2.25;;;;;;;-1.72;60.00;101065.72;5012364;28;20057;-79
2022/12/18 06:33:33;;;;;;;4.43;2.00;;;;;;;-1.71;59.88;101070.03;5012145;28;20097;-79
2022/12/18 06:36:06;;;;;;;6.07;2.60;;;;;;;-1.71;59.82;101070.03;5012122;28;20054;-81
2022/12/18 06:38:34;;;;;;;5.43;2.25;;;;;;;-1.72;59.87;101067.47;5012176;28;20050;-80
2022/12/18 06:41:05;;;;;;;4.07;2.25;;;;;;;-1.73;59.65;101064.00;4994569;28;20093;-80
2022/12/18 06:43:32;;;;;;;5.55;2.28;;;;;;;-1.73;60.03;101068.28;5011878;28;20061;-79
2022/12/18 06:46:00;;;;;;;8.00;2.35;;;;;;;-1.74;60.01;101082.91;5012151;28;20266;-80
2022/12/18 06:48:27;;;;;;;2.90;1.85;;;;;;;-1.75;60.07;101075.16;5012024;28;20089;-82
2022/12/18 06:50:54;;;;;;;5.15;2.55;;;;;;;-1.74;59.83;101087.19;5011865;28;20053;-79
2022/12/18 06:53:20;;;;;;;5.05;2.20;;;;;;;-1.74;60.14;101075.16;5012303;28;20057;-79
2022/12/18 06:55:47;;;;;;;3.92;2.25;;;;;;;-1.74;59.99;101076.88;4994376;28;20060;-78
2022/12/18 06:58:13;;;;;;;5.03;2.20;;;;;;;-1.74;59.96;101074.28;5011957;28;20057;-79
2022/12/18 07:00:40;;;;;;;4.95;2.17;;;;;;;-1.74;60.16;101069.13;5011847;28;20468;-79
2022/12/18 07:03:07;;;;;;;3.63;2.25;;;;;;;-1.74;60.05;101074.28;5011618;28;20422;-80
2022/12/18 07:05:34;;;;;;;3.25;1.75;;;;;;;-1.74;59.68;101070.00;5011512;28;20108;-80
2022/12/18 07:08:00;;;;;;;3.75;2.10;;;;;;;-1.74;59.88;101064.84;5011573;28;20056;-79
2022/12/18 07:10:27;;;;;;;5.13;2.60;;;;;;;-1.73;59.84;101057.94;5011459;28;20085;-79
2022/12/18 07:12:53;;;;;;;4.00;2.15;;;;;;;-1.73;60.06;101051.09;5011857;28;20068;-79
2022/12/18 07:15:20;;;;;;;4.13;2.28;;;;;;;-1.74;59.97;101057.09;5011612;28;20057;-79
2022/12/18 07:17:46;;;;;;;4.88;2.40;;;;;;;-1.73;59.57;101058.81;5011496;28;20056;-80
2022/12/18 07:20:13;;;;;;;6.40;2.38;;;;;;;-1.73;59.58;101066.56;5011465;28;20064;-78
2022/12/18 07:22:39;;;;;;;4.10;1.83;;;;;;;-1.74;59.58;101059.69;5071741;23;20054;-76
2022/12/18 07:25:06;;;;;;;5.05;2.05;;;;;;;-1.72;59.83;101059.72;5009944;28;20502;-76
2022/12/18 07:27:33;;;;;;;5.03;2.58;;;;;;;-1.73;60.03;101056.25;5010703;28;20128;-76
2022/12/18 07:29:59;;;;;;;3.08;1.73;;;;;;;-1.71;59.93;101058.84;5010702;28;20074;-76
2022/12/18 07:32:25;;;;;;;4.18;2.30;;;;;;;-1.68;59.79;101063.19;4979666;28;20129;-76
2022/12/18 07:34:52;;;;;;;4.47;2.33;;;;;;;-1.68;59.70;101058.03;4990224;28;20098;-75
2022/12/18 07:37:18;;;;;;;3.25;2.28;;;;;;;-1.68;59.59;101058.91;4990794;28;20157;-77
2022/12/18 07:39:44;;;;;;;4.35;2.70;;;;;;;-1.67;60.01;101052.00;4990694;28;20104;-77
2022/12/18 07:42:31;;;;;;;4.60;2.58;;;;;;;-1.67;60.06;101055.47;4990817;28;20086;-77
2022/12/18 07:45:00;;;;;;;5.15;2.28;;;;;;;-1.66;59.98;101053.75;4990611;28;20129;-76
2022/12/18 07:47:28;;;;;;;5.55;2.45;;;;;;;-1.67;59.57;101055.47;4990630;28;20089;-77
2022/12/18 07:49:55;;;;;;;3.80;2.30;;;;;;;-1.66;59.94;101048.56;4991195;28;20062;-77
2022/12/18 07:52:21;;;;;;;8.50;2.58;;;;;;;-1.66;59.98;101036.56;4990640;28;20066;-76
2022/12/18 07:54:51;;;;;;;5.47;2.78;;;;;;;-1.64;60.06;101036.56;4990658;28;20055;-76
2022/12/18 07:57:18;;;;;;;6.00;2.78;;;;;;;-1.63;60.09;101035.72;4990673;28;20085;-76
2022/12/18 08:00:04;;;;;;;5.63;2.63;;;;;;;-1.61;60.01;101028.88;4990732;28;20416;-76
2022/12/18 08:02:31;;;;;;;3.92;2.25;;;;;;;-1.59;60.08;101022.00;4990426;28;20530;-77
2022/12/18 08:04:58;;;;;;;5.97;2.78;;;;;;;-1.58;60.08;101018.56;4990441;28;20058;-76
2022/12/18 08:07:24;;;;;;;5.35;2.97;;;;;;;-1.56;60.13;101016.91;4990559;28;20133;-77
2022/12/18 08:09:51;;;;;;;5.93;2.70;;;;;;;-1.55;59.99;101010.88;4990626;28;20133;-77
2022/12/18 08:12:17;;;;;;;6.63;2.95;;;;;;;-1.51;59.89;101022.97;4990491;28;20137;-76
2022/12/18 08:14:43;;;;;;;5.65;2.47;;;;;;;-1.49;60.11;101026.44;4990272;28;20118;-76
2022/12/18 08:17:10;;;;;;;6.57;2.88;;;;;;;-1.47;60.41;101024.75;4990234;28;20054;-76
2022/12/18 08:19:36;;;;;;;5.28;2.67;;;;;;;-1.43;60.17;101027.41;4990341;28;20078;-76
2022/12/18 08:22:02;;;;;;;5.90;3.05;;;;;;;-1.40;60.32;101023.13;4990522;28;20062;-76
2022/12/18 08:24:29;;;;;;;5.50;3.13;;;;;;;-1.36;60.35;101036.94;4990431;28;20054;-76
2022/12/18 08:26:57;;;;;;;7.50;2.97;;;;;;;-1.33;60.17;101032.69;4990254;28;20145;-76
2022/12/18 08:29:43;;;;;;;5.57;3.00;;;;;;;-1.27;60.37;101039.63;4990287;28;20413;-77
2022/12/18 08:32:09;;;;;;;7.55;3.03;;;;;;;-1.22;60.49;101040.59;4990513;28;20089;-75
2022/12/18 08:34:36;;;;;;;6.38;3.20;;;;;;;-1.15;60.76;101043.22;4990099;28;20472;-76
2022/12/18 08:37:02;;;;;;;8.82;3.28;;;;;;;-1.10;60.47;101047.63;4990447;28;20400;-76
2022/12/18 08:39:29;;;;;;;6.00;3.15;;;;;;;-1.05;60.76;101045.94;4990360;28;20094;-75
2022/12/18 08:44:41;;;;;;;5.70;3.13;;;;;;;-0.90;60.61;101043.53;4990218;28;20059;-75
2022/12/18 08:47:07;;;;;;;6.13;3.60;;;;;;;-0.84;60.56;101034.13;4990895;28;20097;-76
2022/12/18 08:49:35;;;;;;;6.18;2.97;;;;;;;-0.78;60.73;101025.56;4994024;28;20058;-75
2022/12/18 08:52:02;;;;;;;5.53;3.25;;;;;;;-0.72;60.63;101020.44;4976561;28;20089;-76
2022/12/18 08:54:29;;;;;;;5.75;3.75;;;;;;;-0.65;60.74;101016.22;4993881;28;20105;-75
2022/12/18 08:56:55;;;;;;;4.70;2.90;;;;;;;-0.60;60.53;101008.50;4993412;28;20062;-75
2022/12/18 08:59:22;;;;;;;4.95;3.10;;;;;;;-0.54;60.73;101008.56;4994089;28;20371;-76
2022/12/18 09:01:49;;;;;;;8.02;3.60;;;;;;;-0.47;60.66;101009.47;4993799;28;20054;-75
2022/12/18 09:04:16;;;;;;;5.45;3.42;;;;;;;-0.41;60.66;101007.81;4993608;28;20137;-75
2022/12/18 09:06:42;;;;;;;5.82;3.30;;;;;;;-0.35;60.67;101006.13;4993444;28;20062;-76
2022/12/18 09:09:09;;;;;;;7.53;3.75;;;;;;;-0.29;60.87;100999.28;4993534;28;20089;-76
2022/12/18 09:11:36;;;;;;;8.75;3.90;;;;;;;-0.24;60.44;100994.16;4993455;28;20347;-76
2022/12/18 09:14:03;;;;;;;5.60;3.80;;;;;;;-0.18;60.56;100994.19;4975975;28;20086;-76
2022/12/18 09:16:31;;;;;;;7.97;3.92;;;;;;;-0.13;60.34;101004.59;4993383;28;20058;-76
2022/12/18 09:18:59;;;;;;;6.75;3.60;;;;;;;-0.09;60.42;101010.63;4993465;28;20054;-76
2022/12/18 09:21:28;;;;;;;5.93;3.28;;;;;;;-0.07;60.27;101014.97;4993322;28;20058;-76
2022/12/18 09:23:56;;;;;;;6.28;3.53;;;;;;;-0.02;60.31;101017.59;4993059;28;20116;-76
2022/12/18 09:26:23;;;;;;;6.20;3.15;;;;;;;0.02;60.35;101015.88;4993311;28;20149;-76
2022/12/18 09:28:50;;;;;;;6.15;3.67;;;;;;;0.04;60.13;101019.38;4993384;28;20102;-76
2022/12/18 09:31:20;;;;;;;5.45;3.42;;;;;;;0.07;60.41;101029.75;4991147;28;20145;-76
2022/12/18 09:33:46;;;;;;;8.85;3.60;;;;;;;0.09;60.12;101018.56;4992885;28;20046;-76
2022/12/18 09:36:15;;;;;;;6.57;3.50;;;;;;;0.12;59.92;101021.16;4992670;28;20571;-76
2022/12/18 09:38:42;;;;;;;7.97;3.58;;;;;;;0.18;60.12;101027.25;4992623;28;20086;-76
2022/12/18 09:41:44;;;;;;;9.88;3.38;;;;;;;0.21;60.44;101032.41;4992841;28;20464;-76
2022/12/18 09:44:14;;;;;;;4.00;2.90;;;;;;;0.28;60.07;101029.03;4992944;28;20137;-75
2022/12/18 09:46:45;;;;;;;5.78;3.42;;;;;;;0.33;60.42;101032.50;4992497;28;20100;-75
2022/12/18 09:49:16;;;;;;;5.03;2.97;;;;;;;0.39;60.31;101018.72;4992959;28;20066;-75
2022/12/18 09:51:46;;;;;;;5.28;3.05;;;;;;;0.44;60.04;101032.56;5010349;28;20065;-76
2022/12/18 09:54:20;;;;;;;6.53;3.60;;;;;;;0.49;60.40;101033.44;5012265;28;20546;-75
2022/12/18 09:56:47;;;;;;;5.65;3.20;;;;;;;0.55;60.21;101022.25;5012289;28;20085;-76
2022/12/18 09:59:20;;;;;;;5.20;3.00;;;;;;;0.60;60.33;101012.78;5012529;28;20141;-76
2022/12/18 10:01:47;;;;;;;8.10;3.58;;;;;;;0.67;60.09;100998.13;5012153;28;20050;-75
2022/12/18 10:04:13;;;;;;;7.00;3.60;;;;;;;0.73;59.94;100977.44;5012208;28;20061;-75
2022/12/18 10:06:59;;;;;;;7.57;3.72;;;;;;;0.78;60.02;100972.25;5011960;28;20064;-76
2022/12/18 10:09:46;;;;;;;6.67;3.97;;;;;;;0.88;60.50;100961.06;4981364;28;20142;-75
2022/12/18 10:12:19;;;;;;;6.38;3.15;;;;;;;0.94;60.30;100959.34;5012251;28;20320;-76
2022/12/18 10:14:54;;;;;;;;;;;;;;;1.01;60.20;100961.09;5012469;28;20054;-76
2022/12/18 10:17:20;;;;;;;5.32;2.90;;;;;;;1.10;60.12;100962.81;5011923;28;19933;-75
2022/12/18 10:19:54;;;;;;;5.35;3.53;;;;;;;1.13;59.67;100955.91;5010768;28;20516;-75
2022/12/18 10:22:29;;;;;;;6.88;4.05;;;;;;;1.20;59.54;100955.94;5011449;28;20137;-75
2022/12/18 10:25:13;;;;;;;7.40;3.83;;;;;;;1.24;59.48;100957.66;5011552;28;20089;-76
2022/12/18 10:27:40;;;;;;;6.13;3.35;;;;;;;1.30;59.94;100961.13;5011688;28;20089;-75
2022/12/18 10:30:14;;;;;;;5.80;3.90;;;;;;;1.35;59.16;100962.88;5012065;28;20133;-76
2022/12/18 10:32:41;;;;;;;6.82;3.80;;;;;;;1.41;60.14;100958.53;5011380;28;20061;-77
2022/12/18 10:35:18;;;;;;;6.72;3.65;;;;;;;1.47;59.60;100959.41;5011618;28;20050;-77
2022/12/18 10:38:03;;;;;;;7.28;3.72;;;;;;;1.50;59.33;100957.66;5011724;28;20061;-76
2022/12/18 10:40:30;;;;;;;6.75;3.80;;;;;;;1.60;59.77;100949.91;5011585;28;20061;-75
2022/12/18 10:43:06;;;;;;;8.27;3.92;;;;;;;1.62;59.17;100941.25;5011139;28;20579;-76
2022/12/18 10:45:32;;;;;;;6.18;3.90;;;;;;;1.70;59.07;100946.41;5011537;28;20141;-76
2022/12/18 10:47:58;;;;;;;7.65;4.20;;;;;;;1.73;59.27;100949.03;5011389;28;20133;-76
2022/12/18 10:50:36;;;;;;;9.73;4.60;;;;;;;1.80;59.40;100942.09;5009756;28;20520;-76
2022/12/18 10:53:25;;;;;;;7.75;4.25;;;;;;;1.86;58.53;100923.91;4987225;28;20076;-76
2022/12/18 10:55:55;;;;;;;7.85;4.40;;;;;;;1.91;58.78;100914.34;4974424;28;20137;-76
2022/12/18 10:58:26;;;;;;;6.47;4.20;;;;;;;1.96;58.54;100901.38;4991741;28;20087;-77
2022/12/18 11:01:07;;;;;;;7.70;4.20;;;;;;;2.02;58.21;100900.50;4991709;28;20090;-76
2022/12/18 11:03:51;;;;;;;7.10;4.20;;;;;;;2.07;59.04;100899.63;4991614;28;20058;-78
2022/12/18 11:06:26;;;;;;;8.40;3.88;;;;;;;2.15;58.55;100909.97;4991373;28;20109;-79
2022/12/18 11:09:01;;;;;;;8.68;3.70;;;;;;;2.20;57.75;100915.13;4991437;28;20070;-77
2022/12/18 11:11:32;;;;;;;7.63;4.57;;;;;;;2.28;58.57;100920.34;4991043;28;20092;-77
2022/12/18 11:14:05;;;;;;;7.82;4.32;;;;;;;2.34;57.99;100912.50;4991356;28;20469;-78
2022/12/18 11:16:42;;;;;;;6.53;4.20;;;;;;;2.41;58.07;100909.00;4991103;28;20205;-76
2022/12/18 11:19:33;;;;;;;7.82;4.47;;;;;;;2.52;58.01;100911.56;4991436;28;20141;-76
2022/12/18 11:22:03;;;;;;;7.50;4.43;;;;;;;2.61;57.91;100900.22;4991026;28;20149;-77
2022/12/18 11:24:32;;;;;;;5.80;4.10;;;;;;;2.66;58.20;100895.91;4991071;28;20113;-76
2022/12/18 11:27:02;;;;;;;7.75;4.78;;;;;;;2.73;57.39;100881.13;4990831;28;20141;-76
2022/12/18 11:29:39;;;;;;;8.57;4.68;;;;;;;2.78;56.24;100881.09;4991453;28;20196;-76
2022/12/18 11:32:14;;;;;;;7.00;4.72;;;;;;;2.84;57.44;100875.84;4991049;28;20524;-77
2022/12/18 11:34:46;;;;;;;8.02;4.70;;;;;;;2.86;56.95;100861.09;4990916;28;20078;-76
2022/12/18 11:37:19;;;;;;;7.07;4.75;;;;;;;2.89;56.62;100862.81;4989527;28;20827;-77
2022/12/18 11:39:52;;;;;;;11.88;5.47;;;;;;;2.89;56.40;100863.69;5000121;28;20053;-76
2022/12/18 11:42:27;;;;;;;8.20;4.65;;;;;;;2.90;56.50;100854.13;4991438;28;20137;-76
2022/12/18 11:45:23;;;;;;;7.50;4.13;;;;;;;2.88;55.91;100855.88;5010033;28;20096;-76